McDonaldsville, Ohio
Current Conditions -  °F | °C
As of 2:51 AM on Monday 24 Nov 2014 (Local Time) from KCAK Reporting Station
Overcast Overcast  
Wind Chill: 58°   Ceiling: 2200
Heat Index: 58°   Visibility: 7mi
Dew Point: 52°   Wind: 26mph
Humidity: 81%   Direction: 190°S
Pressure: 29.29"   Gusts: 40mph
Location:  40.9014°N, 81.4333°W
Report Text: KCAK 240751Z 19023G35KT 7SM FEW014 BKN022 OVC029 14/11 A2929 RMK AO2 PK WND 19035/0747 RAB0658E04 SLP915 P0001 T01440111 $
Loading
Personal Weather Stations






























Interactive Weather Map New forecast layout! Learn more

10-Day Weather Forecast

Advertisements
Track Severe Weather on mobile